Kununurra Airport
YPKU : now visible

Airfield :











YOU CAN JOIN US ON...

 
LOGIN :

Register | Disclaimer

   EN    FR    IT 

 









Legend :    VFR   Marginal VFR   IFR   Intensive IFR   Very Intensive IFR
Visi :
Ceiling :
>= 8 km
>= 3000ft
5 to 8 km
1000 to 3000 ft
1500m to 5 km
500 to 1000 ft
800 to 1500m
200 to 500 ft
< 800m
< 200 ft
Symbols :   Thunderstorms  Fog  Heavy snow  Heavy precipitations  Wind > 20 kt






- Airport Elevation : 145 ft
- IATA code : KNX


YPKU - Kununurra

CURRENT METAR :
  • 220000Z AUTO 01003KT 9999 // NCD 31/27 Q1010

EXPIRED METARs :
  • 212330Z AUTO 03003KT 9999 // SCT014 31/27 Q1010 RF00.0/000.0
  • 212300Z AUTO 03002KT 9999 // SCT016 31/27 Q1010
  • 212257Z AUTO 08003KT 9999 // SCT016 30/27 Q1010
  • 212230Z AUTO 11001KT 9999 // BKN014 30/27 Q1010 RF00.0/000.0
  • 212213Z AUTO 08002KT 9999 // BKN014 29/27 Q1010 RF00.0/000.0
  • 212130Z AUTO 17006KT 9999 // SCT016 29/26 Q1009 RF00.0/000.0

TAF TAF YPKU
Valid from the 21 at 20:00 until the 22 at 08:00 UTC


211859Z 2120/2208 VRB05KT CAVOK
FM212300 10008KT CAVOK
YBBB FIR / Oceania



MET'MAP, your aeronautical weather chart ! - Copyright ORBIFLY December 2007 - Disclaimer

ORBIFLY MET'MAP TEAM :

Programming & Development : Alexandra Zaïnal
Concept & original design : Baudouin d'Aumeries
Assistance for programming : Marc-Olivier Méhu
Technical & hardware support : Manuel Goepfert

Contact : metmap@orbifly.com




SOURCES & CREDITS :

   NOAA       Earth
Advisory